sensor_id;sensor_type;location;lat;lon;timestamp;temperature;humidity
2945;DHT22;1482;51.398;7.128;2023-05-07T00:00:19;15.40;1.00
2945;DHT22;1482;51.398;7.128;2023-05-07T00:02:47;15.50;1.00
2945;DHT22;1482;51.398;7.128;2023-05-07T00:05:13;15.50;1.00
2945;DHT22;1482;51.398;7.128;2023-05-07T00:07:39;15.50;1.00
2945;DHT22;1482;51.398;7.128;2023-05-07T00:10:06;15.60;1.00
2945;DHT22;1482;51.398;7.128;2023-05-07T00:12:32;15.60;1.00
2945;DHT22;1482;51.398;7.128;2023-05-07T00:15:03;15.60;1.00
2945;DHT22;1482;51.398;7.128;2023-05-07T00:17:29;15.60;1.00
2945;DHT22;1482;51.398;7.128;2023-05-07T00:19:55;15.60;1.00
2945;DHT22;1482;51.398;7.128;2023-05-07T00:22:20;15.60;1.00
2945;DHT22;1482;51.398;7.128;2023-05-07T00:24:46;15.60;1.00
2945;DHT22;1482;51.398;7.128;2023-05-07T00:27:12;15.60;99.90
2945;DHT22;1482;51.398;7.128;2023-05-07T00:29:37;15.60;1.00
2945;DHT22;1482;51.398;7.128;2023-05-07T00:32:03;15.50;99.90
2945;DHT22;1482;51.398;7.128;2023-05-07T00:34:29;15.60;1.00
2945;DHT22;1482;51.398;7.128;2023-05-07T00:36:54;15.50;1.00
2945;DHT22;1482;51.398;7.128;2023-05-07T00:39:20;15.50;1.00
2945;DHT22;1482;51.398;7.128;2023-05-07T00:41:45;15.50;1.00
2945;DHT22;1482;51.398;7.128;2023-05-07T00:44:11;15.40;1.00
2945;DHT22;1482;51.398;7.128;2023-05-07T00:46:37;15.50;1.00
2945;DHT22;1482;51.398;7.128;2023-05-07T00:49:03;15.50;1.00
2945;DHT22;1482;51.398;7.128;2023-05-07T00:51:29;15.30;1.00
2945;DHT22;1482;51.398;7.128;2023-05-07T00:53:55;15.30;1.00
2945;DHT22;1482;51.398;7.128;2023-05-07T00:56:21;15.30;1.00
2945;DHT22;1482;51.398;7.128;2023-05-07T00:58:48;15.30;1.00
2945;DHT22;1482;51.398;7.128;2023-05-07T01:01:14;15.30;1.00
2945;DHT22;1482;51.398;7.128;2023-05-07T01:03:42;15.30;1.00
2945;DHT22;1482;51.398;7.128;2023-05-07T01:06:08;15.20;6.00
2945;DHT22;1482;51.398;7.128;2023-05-07T01:08:35;15.10;99.90
2945;DHT22;1482;51.398;7.128;2023-05-07T01:11:01;14.90;99.90
2945;DHT22;1482;51.398;7.128;2023-05-07T01:13:27;14.80;1.00
2945;DHT22;1482;51.398;7.128;2023-05-07T01:15:53;14.70;99.90
2945;DHT22;1482;51.398;7.128;2023-05-07T01:18:19;14.70;1.00
2945;DHT22;1482;51.398;7.128;2023-05-07T01:20:45;14.80;1.00
2945;DHT22;1482;51.398;7.128;2023-05-07T01:23:11;14.90;99.90
2945;DHT22;1482;51.398;7.128;2023-05-07T01:25:37;14.90;99.90
2945;DHT22;1482;51.398;7.128;2023-05-07T01:28:03;15.00;1.00
2945;DHT22;1482;51.398;7.128;2023-05-07T01:30:29;14.80;99.90
2945;DHT22;1482;51.398;7.128;2023-05-07T01:33:08;14.90;99.90
2945;DHT22;1482;51.398;7.128;2023-05-07T01:35:40;15.00;1.00
2945;DHT22;1482;51.398;7.128;2023-05-07T01:38:08;15.00;1.00
2945;DHT22;1482;51.398;7.128;2023-05-07T01:40:34;15.00;1.00
2945;DHT22;1482;51.398;7.128;2023-05-07T01:43:03;15.00;1.00
2945;DHT22;1482;51.398;7.128;2023-05-07T01:45:30;15.10;99.90
2945;DHT22;1482;51.398;7.128;2023-05-07T01:47:57;15.10;99.90
2945;DHT22;1482;51.398;7.128;2023-05-07T01:50:23;15.00;99.90
2945;DHT22;1482;51.398;7.128;2023-05-07T01:52:50;14.90;1.00
2945;DHT22;1482;51.398;7.128;2023-05-07T01:55:16;14.90;1.00
2945;DHT22;1482;51.398;7.128;2023-05-07T01:57:41;14.90;1.00
2945;DHT22;1482;51.398;7.128;2023-05-07T02:00:08;14.80;1.00
2945;DHT22;1482;51.398;7.128;2023-05-07T02:02:34;14.60;99.90
2945;DHT22;1482;51.398;7.128;2023-05-07T02:05:00;14.40;1.00
2945;DHT22;1482;51.398;7.128;2023-05-07T02:07:27;14.40;12.40
2945;DHT22;1482;51.398;7.128;2023-05-07T02:09:52;14.50;1.00
2945;DHT22;1482;51.398;7.128;2023-05-07T02:12:19;14.50;1.00
2945;DHT22;1482;51.398;7.128;2023-05-07T02:14:44;14.60;1.00
2945;DHT22;1482;51.398;7.128;2023-05-07T02:17:10;14.50;99.90
2945;DHT22;1482;51.398;7.128;2023-05-07T02:19:35;14.60;99.90
2945;DHT22;1482;51.398;7.128;2023-05-07T02:22:01;14.60;99.90
2945;DHT22;1482;51.398;7.128;2023-05-07T02:24:26;14.60;1.00
2945;DHT22;1482;51.398;7.128;2023-05-07T02:26:52;14.60;1.00
2945;DHT22;1482;51.398;7.128;2023-05-07T02:29:17;14.60;1.00
2945;DHT22;1482;51.398;7.128;2023-05-07T02:31:43;14.60;1.00
2945;DHT22;1482;51.398;7.128;2023-05-07T02:34:08;14.60;1.00
2945;DHT22;1482;51.398;7.128;2023-05-07T02:36:34;14.70;99.90
2945;DHT22;1482;51.398;7.128;2023-05-07T02:39:00;14.60;99.90
2945;DHT22;1482;51.398;7.128;2023-05-07T02:41:26;14.50;99.90
2945;DHT22;1482;51.398;7.128;2023-05-07T02:43:53;14.60;99.90
2945;DHT22;1482;51.398;7.128;2023-05-07T02:46:18;14.50;43.40
2945;DHT22;1482;51.398;7.128;2023-05-07T02:48:44;14.40;1.00
2945;DHT22;1482;51.398;7.128;2023-05-07T02:51:10;14.20;99.90
2945;DHT22;1482;51.398;7.128;2023-05-07T02:53:35;14.20;1.00
2945;DHT22;1482;51.398;7.128;2023-05-07T02:56:01;14.10;1.00
2945;DHT22;1482;51.398;7.128;2023-05-07T02:58:28;14.20;90.90
2945;DHT22;1482;51.398;7.128;2023-05-07T03:00:54;14.30;99.90
2945;DHT22;1482;51.398;7.128;2023-05-07T03:03:22;14.20;99.90
2945;DHT22;1482;51.398;7.128;2023-05-07T03:05:48;14.00;99.90
2945;DHT22;1482;51.398;7.128;2023-05-07T03:08:13;14.00;1.00
2945;DHT22;1482;51.398;7.128;2023-05-07T03:10:39;14.00;99.90
2945;DHT22;1482;51.398;7.128;2023-05-07T03:13:05;14.10;19.40
2945;DHT22;1482;51.398;7.128;2023-05-07T03:15:31;14.00;1.00
2945;DHT22;1482;51.398;7.128;2023-05-07T03:17:56;14.10;1.00
2945;DHT22;1482;51.398;7.128;2023-05-07T03:20:22;14.20;18.50
2945;DHT22;1482;51.398;7.128;2023-05-07T03:22:48;14.10;1.00
2945;DHT22;1482;51.398;7.128;2023-05-07T03:25:13;14.10;1.00
2945;DHT22;1482;51.398;7.128;2023-05-07T03:27:40;14.20;1.00
2945;DHT22;1482;51.398;7.128;2023-05-07T03:30:07;14.20;99.90
2945;DHT22;1482;51.398;7.128;2023-05-07T03:32:34;14.20;1.00
2945;DHT22;1482;51.398;7.128;2023-05-07T03:35:00;14.30;1.00
2945;DHT22;1482;51.398;7.128;2023-05-07T03:37:26;14.30;99.90
2945;DHT22;1482;51.398;7.128;2023-05-07T03:39:51;14.30;99.90
2945;DHT22;1482;51.398;7.128;2023-05-07T03:42:17;14.30;99.90
2945;DHT22;1482;51.398;7.128;2023-05-07T03:44:43;14.30;99.90
2945;DHT22;1482;51.398;7.128;2023-05-07T03:47:08;14.30;99.90
2945;DHT22;1482;51.398;7.128;2023-05-07T03:49:35;14.30;12.10
2945;DHT22;1482;51.398;7.128;2023-05-07T03:52:01;14.30;1.00
2945;DHT22;1482;51.398;7.128;2023-05-07T03:54:26;14.30;99.90
2945;DHT22;1482;51.398;7.128;2023-05-07T03:56:52;14.30;99.90
2945;DHT22;1482;51.398;7.128;2023-05-07T03:59:17;14.20;1.00
2945;DHT22;1482;51.398;7.128;2023-05-07T04:01:43;14.20;1.00
2945;DHT22;1482;51.398;7.128;2023-05-07T04:04:08;14.20;1.00
2945;DHT22;1482;51.398;7.128;2023-05-07T04:06:37;14.10;1.00
2945;DHT22;1482;51.398;7.128;2023-05-07T04:09:02;14.10;37.20
2945;DHT22;1482;51.398;7.128;2023-05-07T04:11:28;14.10;14.00
2945;DHT22;1482;51.398;7.128;2023-05-07T04:13:54;14.20;1.00
2945;DHT22;1482;51.398;7.128;2023-05-07T04:16:19;14.20;1.00
2945;DHT22;1482;51.398;7.128;2023-05-07T04:18:45;14.00;1.00
2945;DHT22;1482;51.398;7.128;2023-05-07T04:21:20;14.00;99.90
2945;DHT22;1482;51.398;7.128;2023-05-07T04:23:47;14.00;99.90
2945;DHT22;1482;51.398;7.128;2023-05-07T04:26:13;14.10;99.90
2945;DHT22;1482;51.398;7.128;2023-05-07T04:28:38;14.10;1.00
2945;DHT22;1482;51.398;7.128;2023-05-07T04:31:05;14.10;1.00
2945;DHT22;1482;51.398;7.128;2023-05-07T04:33:31;14.10;1.00
2945;DHT22;1482;51.398;7.128;2023-05-07T04:35:56;14.20;1.00
2945;DHT22;1482;51.398;7.128;2023-05-07T04:38:22;14.30;89.10
2945;DHT22;1482;51.398;7.128;2023-05-07T04:40:49;14.30;99.90
2945;DHT22;1482;51.398;7.128;2023-05-07T04:43:15;14.50;99.90
2945;DHT22;1482;51.398;7.128;2023-05-07T04:45:41;14.50;99.90
2945;DHT22;1482;51.398;7.128;2023-05-07T04:48:08;14.40;1.00
2945;DHT22;1482;51.398;7.128;2023-05-07T04:50:34;14.50;99.90
2945;DHT22;1482;51.398;7.128;2023-05-07T04:52:59;14.50;70.60
2945;DHT22;1482;51.398;7.128;2023-05-07T04:55:25;14.70;1.00
2945;DHT22;1482;51.398;7.128;2023-05-07T04:57:51;14.60;99.90
2945;DHT22;1482;51.398;7.128;2023-05-07T05:00:17;14.60;99.90
2945;DHT22;1482;51.398;7.128;2023-05-07T05:02:45;14.60;99.90
2945;DHT22;1482;51.398;7.128;2023-05-07T05:05:10;14.80;1.00
2945;DHT22;1482;51.398;7.128;2023-05-07T05:07:36;15.00;99.90
2945;DHT22;1482;51.398;7.128;2023-05-07T05:10:02;15.20;1.00
2945;DHT22;1482;51.398;7.128;2023-05-07T05:12:29;15.20;1.00
2945;DHT22;1482;51.398;7.128;2023-05-07T05:14:55;15.40;99.90
2945;DHT22;1482;51.398;7.128;2023-05-07T05:17:21;15.20;99.90
2945;DHT22;1482;51.398;7.128;2023-05-07T05:19:46;15.40;99.90
2945;DHT22;1482;51.398;7.128;2023-05-07T05:22:12;15.30;99.90
2945;DHT22;1482;51.398;7.128;2023-05-07T05:24:37;15.30;42.30
2945;DHT22;1482;51.398;7.128;2023-05-07T05:27:03;15.40;99.90
2945;DHT22;1482;51.398;7.128;2023-05-07T05:29:29;15.50;66.40
2945;DHT22;1482;51.398;7.128;2023-05-07T05:31:56;15.20;58.60
2945;DHT22;1482;51.398;7.128;2023-05-07T05:34:22;15.40;99.90
2945;DHT22;1482;51.398;7.128;2023-05-07T05:36:47;15.50;99.90
2945;DHT22;1482;51.398;7.128;2023-05-07T05:39:13;15.80;99.90
2945;DHT22;1482;51.398;7.128;2023-05-07T05:41:39;15.80;1.00
2945;DHT22;1482;51.398;7.128;2023-05-07T05:44:05;16.00;1.00
2945;DHT22;1482;51.398;7.128;2023-05-07T05:46:30;16.10;1.00
2945;DHT22;1482;51.398;7.128;2023-05-07T05:48:56;16.30;99.90
2945;DHT22;1482;51.398;7.128;2023-05-07T05:51:22;16.00;99.90
2945;DHT22;1482;51.398;7.128;2023-05-07T05:53:48;16.10;99.90
2945;DHT22;1482;51.398;7.128;2023-05-07T05:56:14;16.20;99.90
2945;DHT22;1482;51.398;7.128;2023-05-07T05:58:40;16.20;99.90
2945;DHT22;1482;51.398;7.128;2023-05-07T06:01:06;16.30;99.90
2945;DHT22;1482;51.398;7.128;2023-05-07T06:03:31;16.40;99.90
2945;DHT22;1482;51.398;7.128;2023-05-07T06:06:00;16.40;99.90
2945;DHT22;1482;51.398;7.128;2023-05-07T06:08:28;16.40;99.90
2945;DHT22;1482;51.398;7.128;2023-05-07T06:10:54;16.80;99.90
2945;DHT22;1482;51.398;7.128;2023-05-07T06:13:20;17.10;99.90
2945;DHT22;1482;51.398;7.128;2023-05-07T06:15:46;17.00;99.90
2945;DHT22;1482;51.398;7.128;2023-05-07T06:18:11;17.10;99.90
2945;DHT22;1482;51.398;7.128;2023-05-07T06:20:37;17.10;99.90
2945;DHT22;1482;51.398;7.128;2023-05-07T06:23:02;17.00;99.90
2945;DHT22;1482;51.398;7.128;2023-05-07T06:25:28;16.80;99.90
2945;DHT22;1482;51.398;7.128;2023-05-07T06:27:53;16.90;99.90
2945;DHT22;1482;51.398;7.128;2023-05-07T06:30:19;16.70;99.90
2945;DHT22;1482;51.398;7.128;2023-05-07T06:32:44;16.70;99.90
2945;DHT22;1482;51.398;7.128;2023-05-07T06:35:10;16.60;99.90
2945;DHT22;1482;51.398;7.128;2023-05-07T06:37:36;16.70;99.90
2945;DHT22;1482;51.398;7.128;2023-05-07T06:40:04;16.90;99.90
2945;DHT22;1482;51.398;7.128;2023-05-07T06:42:30;16.90;99.90
2945;DHT22;1482;51.398;7.128;2023-05-07T06:44:56;16.90;99.90
2945;DHT22;1482;51.398;7.128;2023-05-07T06:47:21;17.50;99.90
2945;DHT22;1482;51.398;7.128;2023-05-07T06:49:47;17.60;99.90
2945;DHT22;1482;51.398;7.128;2023-05-07T06:52:12;17.50;99.90
2945;DHT22;1482;51.398;7.128;2023-05-07T06:54:38;18.10;99.90
2945;DHT22;1482;51.398;7.128;2023-05-07T06:57:03;18.30;92.60
2945;DHT22;1482;51.398;7.128;2023-05-07T06:59:29;18.40;50.70
2945;DHT22;1482;51.398;7.128;2023-05-07T07:01:54;18.40;39.00
2945;DHT22;1482;51.398;7.128;2023-05-07T07:04:20;19.00;44.10
2945;DHT22;1482;51.398;7.128;2023-05-07T07:06:48;19.30;17.00
2945;DHT22;1482;51.398;7.128;2023-05-07T07:09:13;19.20;1.00
2945;DHT22;1482;51.398;7.128;2023-05-07T07:11:39;19.10;1.00
2945;DHT22;1482;51.398;7.128;2023-05-07T07:14:05;19.20;1.00
2945;DHT22;1482;51.398;7.128;2023-05-07T07:16:31;19.00;1.00
2945;DHT22;1482;51.398;7.128;2023-05-07T07:18:56;19.10;1.00
2945;DHT22;1482;51.398;7.128;2023-05-07T07:21:22;18.80;1.00
2945;DHT22;1482;51.398;7.128;2023-05-07T07:23:47;18.90;1.00
2945;DHT22;1482;51.398;7.128;2023-05-07T07:26:13;19.10;1.00
2945;DHT22;1482;51.398;7.128;2023-05-07T07:28:45;19.20;1.00
2945;DHT22;1482;51.398;7.128;2023-05-07T07:31:11;19.20;1.00
2945;DHT22;1482;51.398;7.128;2023-05-07T07:33:37;19.30;1.00
2945;DHT22;1482;51.398;7.128;2023-05-07T07:36:02;19.40;1.00
2945;DHT22;1482;51.398;7.128;2023-05-07T07:38:28;19.20;1.00
2945;DHT22;1482;51.398;7.128;2023-05-07T07:40:53;19.30;1.00
2945;DHT22;1482;51.398;7.128;2023-05-07T07:43:19;19.40;1.00
2945;DHT22;1482;51.398;7.128;2023-05-07T07:45:45;19.30;1.00
2945;DHT22;1482;51.398;7.128;2023-05-07T07:48:11;19.30;1.00
2945;DHT22;1482;51.398;7.128;2023-05-07T07:50:37;19.50;1.00
2945;DHT22;1482;51.398;7.128;2023-05-07T07:53:03;19.50;1.00
2945;DHT22;1482;51.398;7.128;2023-05-07T07:55:28;19.50;1.00
2945;DHT22;1482;51.398;7.128;2023-05-07T07:57:54;19.90;1.00
2945;DHT22;1482;51.398;7.128;2023-05-07T08:00:19;20.20;1.00
2945;DHT22;1482;51.398;7.128;2023-05-07T08:02:45;20.40;1.00
2945;DHT22;1482;51.398;7.128;2023-05-07T08:05:11;20.60;1.00
2945;DHT22;1482;51.398;7.128;2023-05-07T08:07:36;21.00;1.00
2945;DHT22;1482;51.398;7.128;2023-05-07T08:10:02;21.10;1.00
2945;DHT22;1482;51.398;7.128;2023-05-07T08:12:28;22.10;1.00
2945;DHT22;1482;51.398;7.128;2023-05-07T08:14:53;23.60;1.00
2945;DHT22;1482;51.398;7.128;2023-05-07T08:17:19;24.50;1.00
2945;DHT22;1482;51.398;7.128;2023-05-07T08:19:47;24.60;1.00
2945;DHT22;1482;51.398;7.128;2023-05-07T08:22:13;25.20;1.00
2945;DHT22;1482;51.398;7.128;2023-05-07T08:24:39;26.20;1.00
2945;DHT22;1482;51.398;7.128;2023-05-07T08:27:05;26.70;1.00
2945;DHT22;1482;51.398;7.128;2023-05-07T08:29:30;26.80;1.00
2945;DHT22;1482;51.398;7.128;2023-05-07T08:31:56;26.10;1.00
2945;DHT22;1482;51.398;7.128;2023-05-07T08:34:22;26.70;1.00
2945;DHT22;1482;51.398;7.128;2023-05-07T08:36:48;27.00;1.00
2945;DHT22;1482;51.398;7.128;2023-05-07T08:39:17;27.70;1.00
2945;DHT22;1482;51.398;7.128;2023-05-07T08:41:44;28.20;1.00
2945;DHT22;1482;51.398;7.128;2023-05-07T08:44:14;28.40;1.00
2945;DHT22;1482;51.398;7.128;2023-05-07T08:46:42;27.40;1.00
2945;DHT22;1482;51.398;7.128;2023-05-07T08:49:08;27.60;1.00
2945;DHT22;1482;51.398;7.128;2023-05-07T08:51:35;27.80;1.00
2945;DHT22;1482;51.398;7.128;2023-05-07T08:54:01;27.90;1.00
2945;DHT22;1482;51.398;7.128;2023-05-07T08:56:27;27.80;1.00
2945;DHT22;1482;51.398;7.128;2023-05-07T08:58:52;27.30;1.00
2945;DHT22;1482;51.398;7.128;2023-05-07T09:01:21;26.90;1.00
2945;DHT22;1482;51.398;7.128;2023-05-07T09:03:47;27.60;1.00
2945;DHT22;1482;51.398;7.128;2023-05-07T09:06:13;27.70;1.00
2945;DHT22;1482;51.398;7.128;2023-05-07T09:08:39;27.40;1.00
2945;DHT22;1482;51.398;7.128;2023-05-07T09:11:04;27.60;1.00
2945;DHT22;1482;51.398;7.128;2023-05-07T09:13:30;27.60;1.00
2945;DHT22;1482;51.398;7.128;2023-05-07T09:15:56;27.00;1.00
2945;DHT22;1482;51.398;7.128;2023-05-07T09:18:24;27.20;1.00
2945;DHT22;1482;51.398;7.128;2023-05-07T09:20:50;27.30;1.00
2945;DHT22;1482;51.398;7.128;2023-05-07T09:23:16;27.40;1.00
2945;DHT22;1482;51.398;7.128;2023-05-07T09:25:41;26.70;1.00
2945;DHT22;1482;51.398;7.128;2023-05-07T09:28:07;26.50;1.00
2945;DHT22;1482;51.398;7.128;2023-05-07T09:30:34;26.50;1.00
2945;DHT22;1482;51.398;7.128;2023-05-07T09:33:02;27.10;1.00
2945;DHT22;1482;51.398;7.128;2023-05-07T09:35:29;27.30;1.00
2945;DHT22;1482;51.398;7.128;2023-05-07T09:37:57;27.40;1.00
2945;DHT22;1482;51.398;7.128;2023-05-07T09:40:24;27.70;1.00
2945;DHT22;1482;51.398;7.128;2023-05-07T09:42:50;27.70;1.00
2945;DHT22;1482;51.398;7.128;2023-05-07T09:45:21;27.40;1.00
2945;DHT22;1482;51.398;7.128;2023-05-07T09:47:48;27.40;1.00
2945;DHT22;1482;51.398;7.128;2023-05-07T09:50:15;26.60;1.00
2945;DHT22;1482;51.398;7.128;2023-05-07T09:52:42;26.80;1.00
2945;DHT22;1482;51.398;7.128;2023-05-07T09:55:10;26.80;1.00
2945;DHT22;1482;51.398;7.128;2023-05-07T09:57:36;26.30;1.00
2945;DHT22;1482;51.398;7.128;2023-05-07T10:00:03;26.20;1.00
2945;DHT22;1482;51.398;7.128;2023-05-07T10:02:30;26.30;1.00
2945;DHT22;1482;51.398;7.128;2023-05-07T10:04:57;26.30;1.00
2945;DHT22;1482;51.398;7.128;2023-05-07T10:07:25;26.40;1.00
2945;DHT22;1482;51.398;7.128;2023-05-07T10:09:52;26.20;1.00
2945;DHT22;1482;51.398;7.128;2023-05-07T10:12:19;26.20;1.00
2945;DHT22;1482;51.398;7.128;2023-05-07T10:14:45;26.00;1.00
2945;DHT22;1482;51.398;7.128;2023-05-07T10:17:12;25.20;1.00
2945;DHT22;1482;51.398;7.128;2023-05-07T10:19:39;25.40;1.00
2945;DHT22;1482;51.398;7.128;2023-05-07T10:22:06;25.50;1.00
2945;DHT22;1482;51.398;7.128;2023-05-07T10:24:34;25.70;1.00
2945;DHT22;1482;51.398;7.128;2023-05-07T10:27:01;25.70;1.00
2945;DHT22;1482;51.398;7.128;2023-05-07T10:29:42;26.10;1.00
2945;DHT22;1482;51.398;7.128;2023-05-07T10:34:50;26.30;1.00
2945;DHT22;1482;51.398;7.128;2023-05-07T10:37:18;26.60;1.00
2945;DHT22;1482;51.398;7.128;2023-05-07T10:39:44;26.80;1.00
2945;DHT22;1482;51.398;7.128;2023-05-07T10:42:11;27.10;1.00
2945;DHT22;1482;51.398;7.128;2023-05-07T10:44:37;27.40;1.00
2945;DHT22;1482;51.398;7.128;2023-05-07T10:47:11;27.30;1.00
2945;DHT22;1482;51.398;7.128;2023-05-07T10:52:31;27.40;1.00
2945;DHT22;1482;51.398;7.128;2023-05-07T10:57:42;27.80;1.00
2945;DHT22;1482;51.398;7.128;2023-05-07T11:05:31;26.70;1.00
2945;DHT22;1482;51.398;7.128;2023-05-07T11:07:59;26.50;1.00
2945;DHT22;1482;51.398;7.128;2023-05-07T11:10:54;26.40;1.00
2945;DHT22;1482;51.398;7.128;2023-05-07T11:16:23;25.40;1.00
2945;DHT22;1482;51.398;7.128;2023-05-07T11:18:53;25.60;1.00
2945;DHT22;1482;51.398;7.128;2023-05-07T11:21:46;25.30;1.00
2945;DHT22;1482;51.398;7.128;2023-05-07T11:24:12;25.00;1.00
2945;DHT22;1482;51.398;7.128;2023-05-07T11:26:44;25.00;1.00
2945;DHT22;1482;51.398;7.128;2023-05-07T11:29:13;25.00;1.00
2945;DHT22;1482;51.398;7.128;2023-05-07T11:31:39;24.20;1.00
2945;DHT22;1482;51.398;7.128;2023-05-07T11:34:05;24.40;1.00
2945;DHT22;1482;51.398;7.128;2023-05-07T11:36:32;24.10;1.00
2945;DHT22;1482;51.398;7.128;2023-05-07T11:38:58;23.90;1.00
2945;DHT22;1482;51.398;7.128;2023-05-07T11:41:33;23.70;1.00
2945;DHT22;1482;51.398;7.128;2023-05-07T11:44:00;23.30;1.00
2945;DHT22;1482;51.398;7.128;2023-05-07T11:46:27;23.20;1.00
2945;DHT22;1482;51.398;7.128;2023-05-07T11:48:53;23.10;1.00
2945;DHT22;1482;51.398;7.128;2023-05-07T11:51:25;23.20;1.00
2945;DHT22;1482;51.398;7.128;2023-05-07T11:53:52;23.10;1.00
2945;DHT22;1482;51.398;7.128;2023-05-07T11:56:18;22.90;1.00
2945;DHT22;1482;51.398;7.128;2023-05-07T11:58:46;22.80;1.00
2945;DHT22;1482;51.398;7.128;2023-05-07T12:01:12;23.10;1.00
2945;DHT22;1482;51.398;7.128;2023-05-07T12:03:42;23.10;1.00
2945;DHT22;1482;51.398;7.128;2023-05-07T12:06:10;23.10;1.00
2945;DHT22;1482;51.398;7.128;2023-05-07T12:08:37;22.90;1.00
2945;DHT22;1482;51.398;7.128;2023-05-07T12:11:03;23.10;1.00
2945;DHT22;1482;51.398;7.128;2023-05-07T12:13:32;22.80;1.00
2945;DHT22;1482;51.398;7.128;2023-05-07T12:15:57;22.50;1.00
2945;DHT22;1482;51.398;7.128;2023-05-07T12:18:23;22.80;1.00
2945;DHT22;1482;51.398;7.128;2023-05-07T12:20:50;23.00;1.00
2945;DHT22;1482;51.398;7.128;2023-05-07T12:23:16;23.00;1.00
2945;DHT22;1482;51.398;7.128;2023-05-07T12:25:43;23.10;1.00
2945;DHT22;1482;51.398;7.128;2023-05-07T12:28:18;23.20;1.00
2945;DHT22;1482;51.398;7.128;2023-05-07T12:30:45;23.50;1.00
2945;DHT22;1482;51.398;7.128;2023-05-07T12:33:11;23.80;1.00
2945;DHT22;1482;51.398;7.128;2023-05-07T12:35:41;23.50;1.00
2945;DHT22;1482;51.398;7.128;2023-05-07T12:38:14;23.60;1.00
2945;DHT22;1482;51.398;7.128;2023-05-07T12:40:44;23.60;1.00
2945;DHT22;1482;51.398;7.128;2023-05-07T12:43:24;23.60;1.00
2945;DHT22;1482;51.398;7.128;2023-05-07T12:45:51;23.30;1.00
2945;DHT22;1482;51.398;7.128;2023-05-07T12:48:19;23.00;1.00
2945;DHT22;1482;51.398;7.128;2023-05-07T12:50:45;23.00;1.00
2945;DHT22;1482;51.398;7.128;2023-05-07T12:53:12;22.90;1.00
2945;DHT22;1482;51.398;7.128;2023-05-07T12:55:52;22.70;1.00
2945;DHT22;1482;51.398;7.128;2023-05-07T12:58:20;22.60;1.00
2945;DHT22;1482;51.398;7.128;2023-05-07T13:00:49;22.20;1.00
2945;DHT22;1482;51.398;7.128;2023-05-07T13:03:22;22.10;1.00
2945;DHT22;1482;51.398;7.128;2023-05-07T13:06:22;22.00;1.00
2945;DHT22;1482;51.398;7.128;2023-05-07T13:08:48;22.10;1.00
2945;DHT22;1482;51.398;7.128;2023-05-07T13:11:13;21.80;1.00
2945;DHT22;1482;51.398;7.128;2023-05-07T13:13:41;21.70;1.00
2945;DHT22;1482;51.398;7.128;2023-05-07T13:16:09;21.30;1.00
2945;DHT22;1482;51.398;7.128;2023-05-07T13:18:37;21.40;1.00
2945;DHT22;1482;51.398;7.128;2023-05-07T13:21:03;21.30;1.00
2945;DHT22;1482;51.398;7.128;2023-05-07T13:23:29;21.20;1.00
2945;DHT22;1482;51.398;7.128;2023-05-07T13:25:55;21.10;1.00
2945;DHT22;1482;51.398;7.128;2023-05-07T13:28:21;21.10;1.00
2945;DHT22;1482;51.398;7.128;2023-05-07T13:30:47;21.00;1.00
2945;DHT22;1482;51.398;7.128;2023-05-07T13:33:17;21.20;1.00
2945;DHT22;1482;51.398;7.128;2023-05-07T13:35:43;21.30;1.00
2945;DHT22;1482;51.398;7.128;2023-05-07T13:38:08;21.20;1.00
2945;DHT22;1482;51.398;7.128;2023-05-07T13:40:34;21.20;1.00
2945;DHT22;1482;51.398;7.128;2023-05-07T13:43:00;21.20;1.00
2945;DHT22;1482;51.398;7.128;2023-05-07T13:45:29;21.10;1.00
2945;DHT22;1482;51.398;7.128;2023-05-07T13:47:55;21.10;1.00
2945;DHT22;1482;51.398;7.128;2023-05-07T13:50:21;20.60;1.00
2945;DHT22;1482;51.398;7.128;2023-05-07T13:52:47;20.60;1.00
2945;DHT22;1482;51.398;7.128;2023-05-07T13:55:19;20.50;1.00
2945;DHT22;1482;51.398;7.128;2023-05-07T13:57:45;20.40;1.00
2945;DHT22;1482;51.398;7.128;2023-05-07T14:00:13;20.20;1.00
2945;DHT22;1482;51.398;7.128;2023-05-07T14:02:39;20.30;1.00
2945;DHT22;1482;51.398;7.128;2023-05-07T14:05:05;20.30;1.00
2945;DHT22;1482;51.398;7.128;2023-05-07T14:07:31;20.40;1.00
2945;DHT22;1482;51.398;7.128;2023-05-07T14:09:57;20.40;1.00
2945;DHT22;1482;51.398;7.128;2023-05-07T14:12:22;20.30;1.00
2945;DHT22;1482;51.398;7.128;2023-05-07T14:14:48;20.40;1.00
2945;DHT22;1482;51.398;7.128;2023-05-07T14:17:16;20.40;1.00
2945;DHT22;1482;51.398;7.128;2023-05-07T14:19:42;20.50;1.00
2945;DHT22;1482;51.398;7.128;2023-05-07T14:22:08;20.60;1.00
2945;DHT22;1482;51.398;7.128;2023-05-07T14:24:33;20.60;1.00
2945;DHT22;1482;51.398;7.128;2023-05-07T14:26:59;20.60;1.00
2945;DHT22;1482;51.398;7.128;2023-05-07T14:29:25;20.70;1.00
2945;DHT22;1482;51.398;7.128;2023-05-07T14:31:51;20.70;1.00
2945;DHT22;1482;51.398;7.128;2023-05-07T14:34:16;20.60;1.00
2945;DHT22;1482;51.398;7.128;2023-05-07T14:36:42;20.60;1.00
2945;DHT22;1482;51.398;7.128;2023-05-07T14:39:09;20.60;1.00
2945;DHT22;1482;51.398;7.128;2023-05-07T14:41:34;20.50;1.00
2945;DHT22;1482;51.398;7.128;2023-05-07T14:44:06;20.40;1.00
2945;DHT22;1482;51.398;7.128;2023-05-07T14:46:32;20.30;1.00
2945;DHT22;1482;51.398;7.128;2023-05-07T14:48:58;20.10;1.00
2945;DHT22;1482;51.398;7.128;2023-05-07T14:51:23;20.10;1.00
2945;DHT22;1482;51.398;7.128;2023-05-07T14:53:50;20.00;1.00
2945;DHT22;1482;51.398;7.128;2023-05-07T14:56:16;20.10;23.00
2945;DHT22;1482;51.398;7.128;2023-05-07T14:58:43;20.20;50.50
2945;DHT22;1482;51.398;7.128;2023-05-07T15:01:09;20.30;80.60
2945;DHT22;1482;51.398;7.128;2023-05-07T15:03:34;20.40;94.20
2945;DHT22;1482;51.398;7.128;2023-05-07T15:06:00;20.40;98.20
2945;DHT22;1482;51.398;7.128;2023-05-07T15:08:26;20.50;89.30
2945;DHT22;1482;51.398;7.128;2023-05-07T15:10:51;20.50;98.50
2945;DHT22;1482;51.398;7.128;2023-05-07T15:13:17;20.30;96.10
2945;DHT22;1482;51.398;7.128;2023-05-07T15:15:43;20.40;91.30
2945;DHT22;1482;51.398;7.128;2023-05-07T15:18:09;20.10;77.10
2945;DHT22;1482;51.398;7.128;2023-05-07T15:20:36;20.10;97.50
2945;DHT22;1482;51.398;7.128;2023-05-07T15:23:01;20.00;99.90
2945;DHT22;1482;51.398;7.128;2023-05-07T15:25:28;20.00;99.90
2945;DHT22;1482;51.398;7.128;2023-05-07T15:27:53;19.90;99.90
2945;DHT22;1482;51.398;7.128;2023-05-07T15:30:19;19.70;99.90
2945;DHT22;1482;51.398;7.128;2023-05-07T15:32:46;19.70;99.90
2945;DHT22;1482;51.398;7.128;2023-05-07T15:35:12;19.60;99.90
2945;DHT22;1482;51.398;7.128;2023-05-07T15:37:37;19.50;99.90
2945;DHT22;1482;51.398;7.128;2023-05-07T15:40:04;19.50;99.90
2945;DHT22;1482;51.398;7.128;2023-05-07T15:42:32;19.40;99.90
2945;DHT22;1482;51.398;7.128;2023-05-07T15:44:57;19.50;99.90
2945;DHT22;1482;51.398;7.128;2023-05-07T15:47:25;19.50;99.90
2945;DHT22;1482;51.398;7.128;2023-05-07T15:49:51;19.30;99.90
2945;DHT22;1482;51.398;7.128;2023-05-07T15:52:17;19.20;99.90
2945;DHT22;1482;51.398;7.128;2023-05-07T15:54:42;19.10;99.90
2945;DHT22;1482;51.398;7.128;2023-05-07T15:57:08;19.00;99.90
2945;DHT22;1482;51.398;7.128;2023-05-07T15:59:35;19.00;99.90
2945;DHT22;1482;51.398;7.128;2023-05-07T16:02:01;18.90;99.90
2945;DHT22;1482;51.398;7.128;2023-05-07T16:04:27;18.90;99.90
2945;DHT22;1482;51.398;7.128;2023-05-07T16:06:53;18.80;99.90
2945;DHT22;1482;51.398;7.128;2023-05-07T16:09:18;18.80;99.90
2945;DHT22;1482;51.398;7.128;2023-05-07T16:11:44;18.80;99.90
2945;DHT22;1482;51.398;7.128;2023-05-07T16:14:10;18.80;99.90
2945;DHT22;1482;51.398;7.128;2023-05-07T16:16:35;18.60;99.90
2945;DHT22;1482;51.398;7.128;2023-05-07T16:19:02;18.50;1.00
2945;DHT22;1482;51.398;7.128;2023-05-07T16:21:28;18.40;1.00
2945;DHT22;1482;51.398;7.128;2023-05-07T16:23:55;18.40;1.00